Time;durP1;ratioP1;P1;durP2;ratioP2;P2;SDS_P1;SDS_P2;PMS_P1;PMS_P2;Temp;Humidity;BMP_temperature;BMP_pressure;BME280_temperature;BME280_humidity;BME280_pressure;Samples;Min_cycle;Max_cycle;Signal;HPM_P1;HPM_P2
2023/05/25 00:01:09;;;;;;;11.30;3.70;;;10.80;99.90;;;;;;5111940;27;20188;-66
2023/05/25 00:03:34;;;;;;;8.27;4.07;;;10.70;99.90;;;;;;5130311;27;20940;-66
2023/05/25 00:06:00;;;;;;;13.40;4.40;;;10.80;99.90;;;;;;5130121;27;20186;-67
2023/05/25 00:08:27;;;;;;;10.90;4.30;;;10.80;99.90;;;;;;5130292;27;20179;-66
2023/05/25 00:10:52;;;;;;;9.10;3.73;;;10.80;99.90;;;;;;5129922;27;20412;-66
2023/05/25 00:13:18;;;;;;;17.53;4.13;;;10.80;99.90;;;;;;5129955;27;20901;-66
2023/05/25 00:15:44;;;;;;;10.23;3.20;;;10.70;99.90;;;;;;5111629;27;20180;-66
2023/05/25 00:18:10;;;;;;;9.73;2.90;;;10.70;99.90;;;;;;5130064;27;20203;-66
2023/05/25 00:20:36;;;;;;;15.30;3.23;;;10.70;99.90;;;;;;5111659;27;20549;-66
2023/05/25 00:23:01;;;;;;;8.63;3.10;;;10.70;99.90;;;;;;5129591;27;20504;-66
2023/05/25 00:25:27;;;;;;;13.50;3.97;;;10.60;99.90;;;;;;5111840;27;20581;-68
2023/05/25 00:27:53;;;;;;;14.43;4.20;;;10.60;99.90;;;;;;5130309;27;20290;-65
2023/05/25 00:30:19;;;;;;;8.43;3.17;;;10.60;99.90;;;;;;5130499;27;21004;-67
2023/05/25 00:32:45;;;;;;;9.43;3.90;;;10.50;99.90;;;;;;5130391;27;20223;-66
2023/05/25 00:35:10;;;;;;;8.50;3.53;;;10.50;99.90;;;;;;5130398;27;20652;-66
2023/05/25 00:37:36;;;;;;;12.60;4.57;;;10.50;99.90;;;;;;5129924;27;20204;-66
2023/05/25 00:40:02;;;;;;;6.20;2.80;;;10.50;99.90;;;;;;5129862;27;20222;-66
2023/05/25 00:42:29;;;;;;;7.07;3.17;;;10.40;99.90;;;;;;5129686;27;20546;-66
2023/05/25 00:44:55;;;;;;;6.80;3.00;;;10.40;99.90;;;;;;5129801;27;20489;-66
2023/05/25 00:47:21;;;;;;;12.83;3.77;;;10.40;99.90;;;;;;5129792;27;20514;-66
2023/05/25 00:49:46;;;;;;;3.57;2.77;;;10.30;99.90;;;;;;5129425;27;20178;-67
2023/05/25 00:52:13;;;;;;;9.77;3.30;;;10.20;99.90;;;;;;5129314;27;20405;-66
2023/05/25 00:54:39;;;;;;;8.47;3.30;;;10.10;99.90;;;;;;5129334;27;20187;-66
2023/05/25 00:57:06;;;;;;;8.20;4.13;;;10.10;99.90;;;;;;5110925;28;20861;-66
2023/05/25 00:59:40;;;;;;;10.63;3.33;;;10.00;99.90;;;;;;5129257;28;20206;-66
2023/05/25 01:02:10;;;;;;;8.93;3.60;;;9.90;99.90;;;;;;5129419;28;20770;-66
2023/05/25 01:04:44;;;;;;;12.63;3.73;;;9.80;99.90;;;;;;5129146;27;20435;-66
2023/05/25 01:07:11;;;;;;;9.67;3.10;;;9.80;99.90;;;;;;5129223;27;20937;-66
2023/05/25 01:09:43;;;;;;;12.60;4.50;;;9.70;99.90;;;;;;5129315;28;20927;-66
2023/05/25 01:12:10;;;;;;;8.70;3.73;;;9.70;99.90;;;;;;5129402;28;20421;-66
2023/05/25 01:14:39;;;;;;;8.20;3.37;;;9.70;99.90;;;;;;5129652;27;20459;-66
2023/05/25 01:17:05;;;;;;;12.27;3.70;;;9.70;99.90;;;;;;5129490;27;20434;-66
2023/05/25 01:19:36;;;;;;;17.33;3.83;;;9.60;99.90;;;;;;5129804;27;20466;-65
2023/05/25 01:22:37;;;;;;;15.10;3.60;;;9.50;99.90;;;;;;5129473;28;21221;-66
2023/05/25 01:25:10;;;;;;;6.40;3.43;;;9.50;99.90;;;;;;5129378;27;20919;-65
2023/05/25 01:27:50;;;;;;;10.13;3.63;;;9.50;99.90;;;;;;5129091;27;20795;-66
2023/05/25 01:30:21;;;;;;;11.90;3.80;;;9.40;99.90;;;;;;5129044;28;20409;-66
2023/05/25 01:32:48;;;;;;;10.37;3.23;;;9.40;99.90;;;;;;5129024;28;20450;-66
2023/05/25 01:35:15;;;;;;;7.40;3.53;;;9.40;99.90;;;;;;5131625;27;20427;-66
2023/05/25 01:37:48;;;;;;;9.13;3.40;;;9.40;99.90;;;;;;5132920;27;21120;-66
2023/05/25 01:40:15;;;;;;;12.73;3.63;;;9.20;99.90;;;;;;5132873;27;20450;-66
2023/05/25 01:42:40;;;;;;;10.00;3.63;;;9.20;99.90;;;;;;5114379;27;20914;-66
2023/05/25 01:45:07;;;;;;;14.57;4.10;;;9.10;99.90;;;;;;5132943;27;20416;-66
2023/05/25 01:47:55;;;;;;;12.50;4.43;;;9.10;99.90;;;;;;5132613;27;20212;-66
2023/05/25 01:50:35;;;;;;;14.27;4.53;;;9.00;99.90;;;;;;5132728;27;20410;-66
2023/05/25 01:53:02;;;;;;;10.70;4.23;;;8.90;99.90;;;;;;5132651;27;20479;-66
2023/05/25 01:55:33;;;;;;;17.23;4.10;;;8.80;99.90;;;;;;5132903;27;20925;-67
2023/05/25 01:58:01;;;;;;;11.57;4.83;;;8.80;99.90;;;;;;5132583;27;20442;-66
2023/05/25 02:00:32;;;;;;;11.93;4.23;;;8.80;99.90;;;;;;5132437;27;20469;-66
2023/05/25 02:03:00;;;;;;;11.37;3.73;;;8.60;99.90;;;;;;5113730;27;20421;-66
2023/05/25 02:05:26;;;;;;;14.60;4.20;;;8.70;99.90;;;;;;5132329;27;20463;-66
2023/05/25 02:07:52;;;;;;;6.90;3.80;;;8.60;99.90;;;;;;5113612;27;20434;-66
2023/05/25 02:10:18;;;;;;;14.83;5.60;;;8.60;99.90;;;;;;5132374;27;20470;-66
2023/05/25 02:12:44;;;;;;;5.83;3.97;;;8.50;99.90;;;;;;5132240;27;20433;-66
2023/05/25 02:15:10;;;;;;;10.10;4.13;;;8.50;99.90;;;;;;5132083;27;20805;-66
2023/05/25 02:17:37;;;;;;;8.23;4.10;;;8.50;99.90;;;;;;5132040;27;20232;-66
2023/05/25 02:20:05;;;;;;;10.53;4.80;;;8.50;99.90;;;;;;5113270;27;21176;-65
2023/05/25 02:22:31;;;;;;;7.50;3.53;;;8.50;99.90;;;;;;5113491;27;20421;-65
2023/05/25 02:24:57;;;;;;;7.37;3.63;;;8.50;99.90;;;;;;5132082;27;21140;-65
2023/05/25 02:27:23;;;;;;;8.23;3.27;;;8.60;99.90;;;;;;5131862;27;20481;-65
2023/05/25 02:29:49;;;;;;;10.83;4.03;;;8.60;99.90;;;;;;5131953;27;20426;-65
2023/05/25 02:32:15;;;;;;;14.10;4.07;;;8.60;99.90;;;;;;5131915;27;20169;-66
2023/05/25 02:34:40;;;;;;;9.57;3.80;;;8.60;99.90;;;;;;5131827;27;20428;-66
2023/05/25 02:37:06;;;;;;;6.70;3.93;;;8.60;99.90;;;;;;5131734;27;20236;-66
2023/05/25 02:39:31;;;;;;;10.73;4.10;;;8.50;99.90;;;;;;5113046;27;20594;-65
2023/05/25 02:41:57;;;;;;;19.03;3.97;;;8.20;99.90;;;;;;5131702;27;20289;-66
2023/05/25 02:44:23;;;;;;;10.57;3.87;;;8.20;99.90;;;;;;5131717;27;20193;-65
2023/05/25 02:46:48;;;;;;;12.23;4.50;;;8.20;99.90;;;;;;5112405;27;20200;-66
2023/05/25 02:49:14;;;;;;;6.70;3.63;;;8.20;99.90;;;;;;5113002;27;20185;-65
2023/05/25 02:51:39;;;;;;;4.63;3.07;;;8.10;99.90;;;;;;5131452;27;20564;-66
2023/05/25 02:54:05;;;;;;;9.20;3.67;;;8.20;99.90;;;;;;5131578;27;20585;-66
2023/05/25 02:56:31;;;;;;;9.90;3.80;;;8.30;99.90;;;;;;5131302;27;20201;-66
2023/05/25 02:58:57;;;;;;;14.23;5.00;;;8.50;99.90;;;;;;5131386;27;20282;-66
2023/05/25 03:01:24;;;;;;;9.93;3.60;;;8.60;99.90;;;;;;5112853;27;20653;-66
2023/05/25 03:03:52;;;;;;;12.17;3.67;;;8.60;99.90;;;;;;5131197;27;20182;-65
2023/05/25 03:06:20;;;;;;;9.40;3.23;;;8.60;99.90;;;;;;5131523;27;20914;-66
2023/05/25 03:08:46;;;;;;;5.63;4.00;;;8.70;99.90;;;;;;5112971;27;20511;-66
2023/05/25 03:11:11;;;;;;;14.60;4.23;;;8.70;99.90;;;;;;5131110;27;21257;-66
2023/05/25 03:13:37;;;;;;;7.30;3.43;;;8.80;99.90;;;;;;5131317;27;20697;-66
2023/05/25 03:16:02;;;;;;;9.20;3.63;;;8.80;99.90;;;;;;5130924;27;20188;-66
2023/05/25 03:18:28;;;;;;;9.30;4.00;;;8.80;99.90;;;;;;5130891;27;20174;-66
2023/05/25 03:20:54;;;;;;;12.33;4.03;;;8.90;99.90;;;;;;5130847;27;20206;-66
2023/05/25 03:23:19;;;;;;;10.20;4.40;;;8.90;99.90;;;;;;5130755;27;20282;-66
2023/05/25 03:25:45;;;;;;;11.03;3.70;;;9.00;99.90;;;;;;5112411;27;20261;-66
2023/05/25 03:28:11;;;;;;;11.50;3.87;;;9.00;99.90;;;;;;5130961;27;20684;-66
2023/05/25 03:30:36;;;;;;;11.90;4.20;;;9.00;99.90;;;;;;5130562;27;20199;-65
2023/05/25 03:33:02;;;;;;;12.20;3.70;;;9.00;99.90;;;;;;5130534;27;20580;-66
2023/05/25 03:35:28;;;;;;;10.50;4.90;;;9.10;99.90;;;;;;5111728;27;20188;-65
2023/05/25 03:37:53;;;;;;;16.87;5.60;;;9.10;99.90;;;;;;5130378;27;20201;-66
2023/05/25 03:40:19;;;;;;;10.90;4.17;;;9.20;99.90;;;;;;5111769;27;21034;-66
2023/05/25 03:42:45;;;;;;;12.70;4.87;;;9.10;99.90;;;;;;5130306;27;20284;-66
2023/05/25 03:45:10;;;;;;;10.73;4.67;;;9.10;99.90;;;;;;5130358;27;20171;-66
2023/05/25 03:47:36;;;;;;;11.70;4.73;;;9.10;99.90;;;;;;5130315;27;20435;-66
2023/05/25 03:50:04;;;;;;;10.13;4.47;;;9.20;99.90;;;;;;5111682;27;20192;-65
2023/05/25 03:52:30;;;;;;;16.03;5.40;;;9.20;99.90;;;;;;5130277;27;20210;-65
2023/05/25 03:54:55;;;;;;;9.10;4.80;;;9.20;99.90;;;;;;5130476;27;20976;-65
2023/05/25 03:57:21;;;;;;;9.20;4.90;;;9.20;99.90;;;;;;5129354;27;20198;-65
2023/05/25 03:59:47;;;;;;;7.77;4.50;;;9.10;99.90;;;;;;5129913;27;20264;-65
2023/05/25 04:02:12;;;;;;;8.83;4.63;;;9.10;99.90;;;;;;5130337;27;20636;-65
2023/05/25 04:04:40;;;;;;;13.00;4.43;;;9.10;99.90;;;;;;5130429;27;20257;-65
2023/05/25 04:07:08;;;;;;;14.03;5.43;;;9.00;99.90;;;;;;5112369;27;20265;-65
2023/05/25 04:09:34;;;;;;;27.83;7.50;;;9.00;99.90;;;;;;5130568;27;20424;-65
2023/05/25 04:12:01;;;;;;;14.00;4.47;;;9.00;99.90;;;;;;5130468;27;20754;-65
2023/05/25 04:14:26;;;;;;;19.93;4.63;;;9.00;99.90;;;;;;5130344;27;20566;-65
2023/05/25 04:16:52;;;;;;;7.63;4.10;;;9.10;99.90;;;;;;5130309;27;20434;-65
2023/05/25 04:19:18;;;;;;;12.63;6.20;;;9.10;99.90;;;;;;5130211;27;20720;-65
2023/05/25 04:21:43;;;;;;;16.47;6.80;;;9.10;99.90;;;;;;5129116;27;20548;-65
2023/05/25 04:24:09;;;;;;;13.73;5.63;;;9.20;99.90;;;;;;5129186;27;20557;-65
2023/05/25 04:26:34;;;;;;;9.53;4.17;;;9.20;99.90;;;;;;5129043;27;20236;-66
2023/05/25 04:29:01;;;;;;;11.87;5.33;;;9.20;99.90;;;;;;5129163;27;20186;-66
2023/05/25 04:31:27;;;;;;;12.37;5.73;;;9.20;99.90;;;;;;5129128;27;20601;-66
2023/05/25 04:33:54;;;;;;;12.70;4.70;;;9.10;99.90;;;;;;5129007;27;20553;-65
2023/05/25 04:36:21;;;;;;;10.23;3.97;;;8.90;99.90;;;;;;5128868;27;20450;-65
2023/05/25 04:38:47;;;;;;;8.90;4.00;;;8.90;99.90;;;;;;5109775;27;20433;-66
2023/05/25 04:41:14;;;;;;;14.83;5.23;;;9.00;99.90;;;;;;5128443;27;20456;-66
2023/05/25 04:43:39;;;;;;;12.73;5.30;;;9.10;99.90;;;;;;5128782;27;20937;-65
2023/05/25 04:46:06;;;;;;;10.10;4.83;;;9.20;99.90;;;;;;5128775;27;20414;-65
2023/05/25 04:48:33;;;;;;;8.63;3.90;;;9.30;99.90;;;;;;5128626;27;20173;-65
2023/05/25 04:51:01;;;;;;;10.60;4.53;;;9.40;99.90;;;;;;5128923;27;20427;-65
2023/05/25 04:53:28;;;;;;;12.10;4.43;;;9.50;99.90;;;;;;5128583;27;20421;-66
2023/05/25 04:55:54;;;;;;;10.37;4.80;;;9.50;99.90;;;;;;5092830;28;20431;-65
2023/05/25 04:58:21;;;;;;;8.00;4.37;;;9.60;99.90;;;;;;5128322;27;20813;-65
2023/05/25 05:00:47;;;;;;;11.43;4.20;;;9.60;99.90;;;;;;5128163;28;20210;-66
2023/05/25 05:03:12;;;;;;;22.50;4.97;;;9.70;99.90;;;;;;5127704;28;20419;-65
2023/05/25 05:05:38;;;;;;;12.43;4.40;;;9.80;99.90;;;;;;5109313;28;20178;-65
2023/05/25 05:08:04;;;;;;;7.20;4.10;;;9.80;99.90;;;;;;5128053;27;20205;-66
2023/05/25 05:10:29;;;;;;;14.67;4.57;;;9.90;99.90;;;;;;5131740;27;20189;-66
2023/05/25 05:12:55;;;;;;;12.17;4.73;;;10.00;99.90;;;;;;5132504;27;20518;-66
2023/05/25 05:15:21;;;;;;;8.77;4.10;;;10.10;99.90;;;;;;5114223;27;20238;-66
2023/05/25 05:17:46;;;;;;;19.17;5.37;;;10.30;99.90;;;;;;5132465;27;20206;-65
2023/05/25 05:20:12;;;;;;;10.40;4.47;;;10.40;99.90;;;;;;5132460;27;20216;-66
2023/05/25 05:22:38;;;;;;;18.13;6.03;;;10.50;99.90;;;;;;5114232;27;20220;-65
2023/05/25 05:25:04;;;;;;;19.20;5.07;;;10.50;99.90;;;;;;5132712;27;20207;-65
2023/05/25 05:27:29;;;;;;;16.43;5.43;;;10.50;99.90;;;;;;5132500;27;20200;-65
2023/05/25 05:29:55;;;;;;;12.20;5.20;;;10.50;99.90;;;;;;5132395;27;20423;-66
2023/05/25 05:32:21;;;;;;;15.70;5.37;;;10.50;99.90;;;;;;5132467;27;20212;-66
2023/05/25 05:34:46;;;;;;;8.00;4.47;;;10.60;99.90;;;;;;5132356;27;20193;-65
2023/05/25 05:37:12;;;;;;;10.37;5.93;;;10.70;99.90;;;;;;5132623;27;20255;-66
2023/05/25 05:39:37;;;;;;;14.93;5.83;;;10.80;99.90;;;;;;5132426;27;20323;-66
2023/05/25 05:42:03;;;;;;;11.23;5.80;;;10.90;99.90;;;;;;5132323;27;20673;-66
2023/05/25 05:44:29;;;;;;;15.53;6.30;;;11.00;99.90;;;;;;5132329;27;20181;-66
2023/05/25 05:46:58;;;;;;;10.63;5.60;;;11.00;99.90;;;;;;5132365;27;20659;-66
2023/05/25 05:49:26;;;;;;;10.37;5.10;;;11.00;99.90;;;;;;5132745;27;20183;-66
2023/05/25 05:51:51;;;;;;;13.23;6.10;;;11.00;99.90;;;;;;5114044;27;20821;-66
2023/05/25 05:54:17;;;;;;;16.20;5.83;;;11.10;99.90;;;;;;5132470;27;20416;-66
2023/05/25 05:56:43;;;;;;;14.70;5.60;;;11.20;99.90;;;;;;5132836;27;20707;-66
2023/05/25 05:59:10;;;;;;;12.80;5.90;;;11.20;99.90;;;;;;5114029;27;20216;-65
2023/05/25 06:01:36;;;;;;;8.27;5.60;;;11.40;99.90;;;;;;5132807;27;20201;-66
2023/05/25 06:04:01;;;;;;;13.03;6.20;;;11.50;99.90;;;;;;5132515;27;20911;-66
2023/05/25 06:06:27;;;;;;;7.43;5.03;;;11.50;99.90;;;;;;5132384;27;20720;-66
2023/05/25 06:08:53;;;;;;;12.60;6.07;;;11.60;99.90;;;;;;5132527;27;20566;-66
2023/05/25 06:11:19;;;;;;;10.50;5.90;;;11.60;99.90;;;;;;5132571;27;20289;-67
2023/05/25 06:13:44;;;;;;;11.87;6.50;;;11.50;99.90;;;;;;5132363;27;20925;-66
2023/05/25 06:16:11;;;;;;;22.27;6.20;;;11.70;99.90;;;;;;5113718;27;20236;-66
2023/05/25 06:18:36;;;;;;;12.80;6.33;;;11.80;99.90;;;;;;5131856;27;20194;-65
2023/05/25 06:21:02;;;;;;;36.57;6.47;;;11.90;99.90;;;;;;5130742;27;20458;-66
2023/05/25 06:23:28;;;;;;;17.73;6.00;;;12.10;99.90;;;;;;5131712;27;20228;-66
2023/05/25 06:25:54;;;;;;;15.60;6.53;;;12.10;99.90;;;;;;5131608;27;20189;-66
2023/05/25 06:28:19;;;;;;;12.67;6.00;;;12.10;99.90;;;;;;5131303;27;20219;-65
2023/05/25 06:30:45;;;;;;;16.30;6.27;;;12.10;99.90;;;;;;5131317;27;20414;-66
2023/05/25 06:33:11;;;;;;;14.07;6.60;;;12.10;99.90;;;;;;5131332;27;20183;-66
2023/05/25 06:35:36;;;;;;;16.60;6.23;;;12.10;99.90;;;;;;5131403;27;20188;-66
2023/05/25 06:38:02;;;;;;;15.20;6.53;;;12.20;99.90;;;;;;5112669;27;20256;-65
2023/05/25 06:40:28;;;;;;;23.37;7.20;;;12.20;99.90;;;;;;5112638;27;20220;-66
2023/05/25 06:42:53;;;;;;;20.77;6.77;;;12.30;99.90;;;;;;5131297;27;20764;-66
2023/05/25 06:45:20;;;;;;;23.17;7.03;;;12.30;99.90;;;;;;5112526;27;20247;-66
2023/05/25 06:47:45;;;;;;;13.10;6.43;;;12.30;99.90;;;;;;5130880;27;20472;-65
2023/05/25 06:50:12;;;;;;;21.23;6.57;;;12.40;99.90;;;;;;5131215;27;20460;-67
2023/05/25 06:52:38;;;;;;;16.43;6.67;;;12.40;99.90;;;;;;5130854;27;20200;-65
2023/05/25 06:55:04;;;;;;;14.23;7.37;;;12.30;99.90;;;;;;5130754;27;20473;-64
2023/05/25 06:57:29;;;;;;;23.40;7.57;;;12.40;99.90;;;;;;5131031;27;20207;-67
2023/05/25 06:59:55;;;;;;;18.20;7.00;;;12.50;99.90;;;;;;5130526;27;21087;-66
2023/05/25 07:02:21;;;;;;;16.40;6.23;;;12.50;99.90;;;;;;5130482;27;20203;-66
2023/05/25 07:04:46;;;;;;;10.67;7.30;;;12.50;99.90;;;;;;5130469;27;20187;-66
2023/05/25 07:07:12;;;;;;;15.03;7.20;;;12.60;99.90;;;;;;5130386;27;20533;-66
2023/05/25 07:09:38;;;;;;;13.63;7.10;;;12.70;99.90;;;;;;5130334;27;20182;-67
2023/05/25 07:12:06;;;;;;;22.50;8.70;;;12.70;99.90;;;;;;5129945;27;20418;-66
2023/05/25 07:14:33;;;;;;;19.37;7.50;;;12.80;99.90;;;;;;5129856;27;20419;-67
2023/05/25 07:16:59;;;;;;;13.93;6.77;;;13.00;99.90;;;;;;5130328;27;20460;-66
2023/05/25 07:19:24;;;;;;;16.67;7.70;;;13.10;99.90;;;;;;5130441;27;20497;-66
2023/05/25 07:21:50;;;;;;;12.27;6.77;;;13.30;99.90;;;;;;5130517;27;20824;-65
2023/05/25 07:24:17;;;;;;;16.43;7.00;;;13.50;99.90;;;;;;5129865;27;20699;-65
2023/05/25 07:26:43;;;;;;;14.47;6.33;;;13.50;99.90;;;;;;5111267;27;20752;-65
2023/05/25 07:29:09;;;;;;;19.93;7.03;;;13.70;99.90;;;;;;5129870;27;20419;-66
2023/05/25 07:31:35;;;;;;;21.97;8.27;;;13.90;99.90;;;;;;5129730;27;20420;-65
2023/05/25 07:34:01;;;;;;;17.60;7.40;;;13.90;99.90;;;;;;5111115;27;20430;-66
2023/05/25 07:36:26;;;;;;;24.27;8.47;;;14.00;99.90;;;;;;5130114;27;20438;-67
2023/05/25 07:38:52;;;;;;;20.93;8.80;;;14.10;99.90;;;;;;5129850;27;20185;-66
2023/05/25 07:41:17;;;;;;;16.33;7.00;;;14.20;99.90;;;;;;5111378;27;20288;-66
2023/05/25 07:43:43;;;;;;;9.90;6.87;;;14.40;99.90;;;;;;5129932;27;20636;-66
2023/05/25 07:46:09;;;;;;;19.93;7.10;;;14.40;99.90;;;;;;5129832;27;20184;-67
2023/05/25 07:48:35;;;;;;;13.23;7.47;;;14.70;99.90;;;;;;5130001;27;20184;-66
2023/05/25 07:51:00;;;;;;;15.83;7.23;;;14.80;99.90;;;;;;5129869;27;20182;-66
2023/05/25 07:53:26;;;;;;;16.27;7.47;;;14.90;99.90;;;;;;5129431;27;20695;-66
2023/05/25 07:55:51;;;;;;;14.53;7.50;;;14.80;99.90;;;;;;5111180;27;20645;-66
2023/05/25 07:58:17;;;;;;;22.33;7.83;;;14.70;99.90;;;;;;5129679;27;20228;-66
2023/05/25 08:00:43;;;;;;;17.80;8.10;;;14.70;99.90;;;;;;5129150;27;20225;-66
2023/05/25 08:03:09;;;;;;;16.30;8.17;;;14.70;99.90;;;;;;5110586;27;20192;-67
2023/05/25 08:05:35;;;;;;;20.70;8.00;;;14.70;99.90;;;;;;5129308;27;20540;-67
2023/05/25 08:08:01;;;;;;;17.23;7.10;;;14.60;99.90;;;;;;5128895;27;20487;-66
2023/05/25 08:10:31;;;;;;;17.23;6.70;;;14.60;99.90;;;;;;5128557;27;20218;-67
2023/05/25 08:12:57;;;;;;;13.87;7.50;;;14.70;99.90;;;;;;5129533;27;20180;-67
2023/05/25 08:15:23;;;;;;;18.37;6.60;;;14.80;99.90;;;;;;5129239;27;20421;-66
2023/05/25 08:17:49;;;;;;;15.27;7.73;;;14.90;99.90;;;;;;5129103;27;20446;-66
2023/05/25 08:20:16;;;;;;;14.37;7.30;;;14.90;99.90;;;;;;5110629;27;20461;-66
2023/05/25 08:22:42;;;;;;;15.57;6.57;;;15.00;99.90;;;;;;5129103;27;20177;-67
2023/05/25 08:25:08;;;;;;;14.03;7.00;;;15.10;99.90;;;;;;5128950;27;20414;-67
2023/05/25 08:27:34;;;;;;;16.53;8.10;;;15.20;99.90;;;;;;5128852;27;20438;-67
2023/05/25 08:30:00;;;;;;;16.57;7.90;;;15.40;99.90;;;;;;5128839;27;20423;-67
2023/05/25 08:32:26;;;;;;;15.30;7.60;;;15.70;99.90;;;;;;5128211;27;20976;-67
2023/05/25 08:34:51;;;;;;;15.40;7.50;;;15.70;99.90;;;;;;5128585;27;20185;-67
2023/05/25 08:37:18;;;;;;;19.77;9.57;;;15.80;99.90;;;;;;5128462;27;20677;-66
2023/05/25 08:39:44;;;;;;;17.90;8.23;;;15.90;99.90;;;;;;5128464;27;20234;-66
2023/05/25 08:42:10;;;;;;;12.67;8.43;;;16.00;99.90;;;;;;5128529;27;20938;-67
2023/05/25 08:44:36;;;;;;;20.30;8.10;;;16.10;99.90;;;;;;5128162;27;20596;-68
2023/05/25 08:47:06;;;;;;;20.47;8.60;;;16.20;99.90;;;;;;5109446;27;20678;-67
2023/05/25 08:49:38;;;;;;;15.87;8.73;;;16.40;99.90;;;;;;5128594;27;20460;-67
2023/05/25 08:52:12;;;;;;;17.73;8.57;;;16.50;99.90;;;;;;5128545;27;20456;-67
2023/05/25 08:54:40;;;;;;;17.13;8.37;;;16.70;99.90;;;;;;5128402;27;20424;-66
2023/05/25 08:57:18;;;;;;;17.00;8.60;;;16.80;99.90;;;;;;5128171;27;20464;-67
2023/05/25 08:59:50;;;;;;;19.27;8.10;;;16.80;99.90;;;;;;5128231;28;20961;-67
2023/05/25 09:02:40;;;;;;;18.13;8.23;;;16.90;99.90;;;;;;5127961;28;20420;-67
2023/05/25 09:05:07;;;;;;;17.73;7.90;;;17.10;99.90;;;;;;5128098;27;20424;-68
2023/05/25 09:07:34;;;;;;;17.97;8.30;;;17.30;99.90;;;;;;5128242;27;20436;-67
2023/05/25 09:10:00;;;;;;;14.37;6.83;;;17.40;99.90;;;;;;5109399;27;20480;-67
2023/05/25 09:12:29;;;;;;;17.10;8.80;;;17.60;99.90;;;;;;5109468;28;20935;-67
2023/05/25 09:14:58;;;;;;;16.80;9.77;;;17.80;99.90;;;;;;5109495;28;20860;-67
2023/05/25 09:17:24;;;;;;;21.73;9.13;;;17.80;99.90;;;;;;5127623;27;20945;-67
2023/05/25 09:19:50;;;;;;;19.00;8.50;;;18.00;99.90;;;;;;5127759;28;20463;-67
2023/05/25 09:22:15;;;;;;;15.07;8.33;;;18.50;99.90;;;;;;5127858;27;20253;-68
2023/05/25 09:24:42;;;;;;;15.93;8.23;;;18.70;99.90;;;;;;5128274;27;20514;-67
2023/05/25 09:27:16;;;;;;;15.30;8.43;;;19.20;99.90;;;;;;5109143;28;20303;-67
2023/05/25 09:29:41;;;;;;;15.53;8.83;;;19.60;99.90;;;;;;5128067;28;20889;-67
2023/05/25 09:32:07;;;;;;;19.30;8.17;;;19.90;99.90;;;;;;5128018;27;20421;-67
2023/05/25 09:34:33;;;;;;;12.57;7.77;;;20.50;99.90;;;;;;5128158;28;20188;-67
2023/05/25 09:37:02;;;;;;;19.40;9.10;;;20.80;99.90;;;;;;5128011;27;20262;-68
2023/05/25 09:39:27;;;;;;;19.17;7.53;;;20.90;99.90;;;;;;5127826;27;20955;-68
2023/05/25 09:41:53;;;;;;;14.70;8.43;;;20.90;99.90;;;;;;5128098;28;20445;-67
2023/05/25 09:44:19;;;;;;;11.10;6.73;;;20.80;99.90;;;;;;5128540;28;20186;-67
2023/05/25 09:46:45;;;;;;;17.17;8.20;;;21.20;99.90;;;;;;5128363;27;20699;-68
2023/05/25 09:49:11;;;;;;;17.07;8.67;;;21.60;99.90;;;;;;5109452;28;20421;-67
2023/05/25 09:51:37;;;;;;;15.20;8.03;;;21.60;99.90;;;;;;5128121;28;20185;-67
2023/05/25 09:54:07;;;;;;;15.67;8.00;;;21.80;99.90;;;;;;5110283;28;20501;-68
2023/05/25 09:56:33;;;;;;;17.17;8.93;;;21.90;99.90;;;;;;5129516;27;20449;-67
2023/05/25 09:58:58;;;;;;;14.10;8.03;;;21.70;99.90;;;;;;5131623;27;20474;-67
2023/05/25 10:01:26;;;;;;;14.90;8.50;;;21.70;99.90;;;;;;5131654;27;20184;-67
2023/05/25 10:03:55;;;;;;;15.63;8.87;;;21.60;99.90;;;;;;5114010;27;20501;-67
2023/05/25 10:06:22;;;;;;;15.83;9.77;;;21.60;99.90;;;;;;5131999;27;20521;-67
2023/05/25 10:08:49;;;;;;;15.20;9.70;;;22.00;99.90;;;;;;5132621;27;20430;-67
2023/05/25 10:11:15;;;;;;;13.20;8.20;;;22.30;99.90;;;;;;5132770;27;20434;-67
2023/05/25 10:13:44;;;;;;;15.73;8.47;;;22.50;99.90;;;;;;5132520;27;20426;-67
2023/05/25 10:16:16;;;;;;;14.50;7.50;;;22.60;99.90;;;;;;5113907;27;20581;-68
2023/05/25 10:18:56;;;;;;;10.10;8.33;;;22.50;99.90;;;;;;5113037;27;20900;-68
2023/05/25 10:21:24;;;;;;;18.10;8.40;;;22.60;99.30;;;;;;5131778;27;20427;-68
2023/05/25 10:24:02;;;;;;;13.43;7.87;;;22.90;99.90;;;;;;5131985;27;20499;-68
2023/05/25 10:26:34;;;;;;;15.13;8.03;;;22.90;99.60;;;;;;5132079;27;20432;-68
2023/05/25 10:29:03;;;;;;;15.30;7.73;;;23.00;99.90;;;;;;5131935;27;20407;-68
2023/05/25 10:31:30;;;;;;;12.60;7.50;;;22.60;99.30;;;;;;5131342;27;20449;-68
2023/05/25 10:33:58;;;;;;;12.93;7.90;;;22.20;99.70;;;;;;5131000;27;20475;-68
2023/05/25 10:36:24;;;;;;;17.70;7.80;;;21.90;99.90;;;;;;5130834;27;20427;-67
2023/05/25 10:38:50;;;;;;;16.67;7.23;;;21.70;99.90;;;;;;5112549;27;20417;-67
2023/05/25 10:41:18;;;;;;;17.70;8.30;;;21.50;99.90;;;;;;5130933;27;20538;-68
2023/05/25 10:43:44;;;;;;;16.90;7.53;;;21.40;99.90;;;;;;5131047;27;20518;-67
2023/05/25 10:46:11;;;;;;;13.33;7.40;;;21.10;99.90;;;;;;5130796;27;20419;-67
2023/05/25 10:48:38;;;;;;;19.80;7.80;;;21.00;99.90;;;;;;5131110;27;20484;-68
2023/05/25 10:51:04;;;;;;;11.23;6.67;;;21.00;99.90;;;;;;5130445;27;20431;-68
2023/05/25 10:53:30;;;;;;;10.40;7.47;;;21.00;99.90;;;;;;5130503;27;20421;-68
2023/05/25 10:56:00;;;;;;;12.93;7.47;;;21.00;99.90;;;;;;5130605;27;20418;-67
2023/05/25 10:58:28;;;;;;;11.20;6.73;;;21.10;99.90;;;;;;5130415;27;20553;-68
2023/05/25 11:01:14;;;;;;;14.60;8.03;;;21.10;99.90;;;;;;5130189;27;20462;-68
2023/05/25 11:03:45;;;;;;;13.10;7.10;;;21.10;99.90;;;;;;5130468;27;20402;-68
2023/05/25 11:06:15;;;;;;;11.73;6.80;;;20.80;99.90;;;;;;5130659;27;21040;-67
2023/05/25 11:08:52;;;;;;;17.80;8.50;;;20.90;99.90;;;;;;5129710;27;20515;-68
2023/05/25 11:11:18;;;;;;;14.93;8.10;;;21.00;99.90;;;;;;5130178;27;20501;-68
2023/05/25 11:13:48;;;;;;;12.37;8.10;;;21.00;99.90;;;;;;5130109;27;20498;-68
2023/05/25 11:16:26;;;;;;;14.80;8.20;;;21.10;99.90;;;;;;5129893;27;20424;-68
2023/05/25 11:18:57;;;;;;;12.70;7.40;;;20.90;99.90;;;;;;5130123;27;21002;-68
2023/05/25 11:21:26;;;;;;;12.83;8.17;;;21.00;99.90;;;;;;5129776;27;20431;-68
2023/05/25 11:23:56;;;;;;;20.43;8.37;;;21.10;99.90;;;;;;5129275;27;20453;-68
2023/05/25 11:26:23;;;;;;;16.70;7.40;;;21.00;99.90;;;;;;5129365;27;20491;-68
2023/05/25 11:28:53;;;;;;;9.17;7.20;;;21.20;99.90;;;;;;5130340;27;20423;-67
2023/05/25 11:31:33;;;;;;;18.57;7.40;;;21.30;99.90;;;;;;5129978;27;20456;-68
2023/05/25 11:34:00;;;;;;;19.00;8.70;;;21.20;99.90;;;;;;5111601;27;20785;-67
2023/05/25 11:36:30;;;;;;;24.73;8.40;;;21.10;99.90;;;;;;5129914;27;20445;-67
2023/05/25 11:38:56;;;;;;;19.83;8.20;;;21.40;99.90;;;;;;5129980;27;20418;-67
2023/05/25 11:41:23;;;;;;;13.53;7.80;;;21.30;99.90;;;;;;5128939;27;20525;-67
2023/05/25 11:43:52;;;;;;;16.97;7.17;;;21.50;99.90;;;;;;5128968;27;20418;-67
2023/05/25 11:46:18;;;;;;;12.97;7.67;;;21.80;99.90;;;;;;5129179;27;20417;-67
2023/05/25 11:48:48;;;;;;;15.00;8.40;;;21.80;99.90;;;;;;5129045;27;20415;-67
2023/05/25 11:51:14;;;;;;;16.60;8.00;;;21.60;99.90;;;;;;5129499;27;20424;-67
2023/05/25 11:53:43;;;;;;;14.40;7.47;;;21.40;99.90;;;;;;5129553;27;20418;-66
2023/05/25 11:56:11;;;;;;;11.53;7.57;;;21.30;99.90;;;;;;5129349;27;20192;-66
2023/05/25 11:58:37;;;;;;;13.13;7.00;;;21.30;99.90;;;;;;5129562;27;20433;-66
2023/05/25 12:01:23;;;;;;;14.83;8.23;;;21.10;99.90;;;;;;5129269;27;20684;-66
2023/05/25 12:03:55;;;;;;;14.77;7.80;;;21.00;99.90;;;;;;5129252;27;20557;-67
2023/05/25 12:06:29;;;;;;;10.50;7.10;;;21.00;99.90;;;;;;5129096;27;20435;-66
2023/05/25 12:08:56;;;;;;;13.77;7.73;;;21.10;99.90;;;;;;5128619;27;20403;-66
2023/05/25 12:11:32;;;;;;;19.23;7.70;;;21.30;99.90;;;;;;5128850;27;20421;-66
2023/05/25 12:13:58;;;;;;;11.53;6.33;;;21.90;99.90;;;;;;5128551;27;20427;-67
2023/05/25 12:16:24;;;;;;;11.53;8.13;;;22.00;99.90;;;;;;5128423;27;20572;-67
2023/05/25 12:18:51;;;;;;;12.90;7.43;;;21.80;99.90;;;;;;5127696;27;20453;-68
2023/05/25 12:21:18;;;;;;;16.30;7.80;;;21.90;99.90;;;;;;5128350;27;20471;-67
2023/05/25 12:23:44;;;;;;;10.90;7.40;;;21.90;99.90;;;;;;5128503;27;21005;-68
2023/05/25 12:26:11;;;;;;;12.07;6.43;;;21.70;99.90;;;;;;5128439;27;20433;-67
2023/05/25 12:28:37;;;;;;;12.00;7.30;;;21.60;99.90;;;;;;5109669;27;20188;-67
2023/05/25 12:31:22;;;;;;;14.90;6.70;;;21.70;99.90;;;;;;5109645;27;20486;-68
2023/05/25 12:34:11;;;;;;;18.23;7.20;;;21.60;99.90;;;;;;5128312;27;20695;-67
2023/05/25 12:36:37;;;;;;;10.03;5.80;;;21.40;99.90;;;;;;5128251;27;20427;-67
2023/05/25 12:39:08;;;;;;;18.30;7.80;;;21.50;99.90;;;;;;5109144;27;20839;-67
2023/05/25 12:41:48;;;;;;;17.00;7.77;;;21.50;99.90;;;;;;5127836;27;20441;-67
2023/05/25 12:44:20;;;;;;;11.80;7.30;;;21.40;99.90;;;;;;5128044;27;20906;-68